sensor_id;sensor_type;location;lat;lon;timestamp;temperature;humidity
3380;DHT22;1703;51.964;7.642;2024-01-11T00:02:07;-2.80;99.90
3380;DHT22;1703;51.964;7.642;2024-01-11T00:04:34;-2.80;99.90
3380;DHT22;1703;51.964;7.642;2024-01-11T00:07:00;-2.80;99.90
3380;DHT22;1703;51.964;7.642;2024-01-11T00:09:27;-2.70;99.90
3380;DHT22;1703;51.964;7.642;2024-01-11T00:11:54;-2.80;99.90
3380;DHT22;1703;51.964;7.642;2024-01-11T00:14:21;-2.80;99.90
3380;DHT22;1703;51.964;7.642;2024-01-11T00:16:48;-2.80;99.90
3380;DHT22;1703;51.964;7.642;2024-01-11T00:19:16;-2.70;99.90
3380;DHT22;1703;51.964;7.642;2024-01-11T00:21:43;-2.70;99.90
3380;DHT22;1703;51.964;7.642;2024-01-11T00:24:09;-2.60;99.90
3380;DHT22;1703;51.964;7.642;2024-01-11T00:26:36;-2.60;99.90
3380;DHT22;1703;51.964;7.642;2024-01-11T00:29:03;-2.60;99.90
3380;DHT22;1703;51.964;7.642;2024-01-11T00:31:30;-2.60;99.90
3380;DHT22;1703;51.964;7.642;2024-01-11T00:33:57;-2.60;99.90
3380;DHT22;1703;51.964;7.642;2024-01-11T00:36:25;-2.70;99.90
3380;DHT22;1703;51.964;7.642;2024-01-11T00:38:52;-2.80;99.90
3380;DHT22;1703;51.964;7.642;2024-01-11T00:41:18;-2.90;99.90
3380;DHT22;1703;51.964;7.642;2024-01-11T00:43:45;-3.00;99.90
3380;DHT22;1703;51.964;7.642;2024-01-11T00:46:12;-2.90;99.90
3380;DHT22;1703;51.964;7.642;2024-01-11T00:48:39;-2.80;99.90
3380;DHT22;1703;51.964;7.642;2024-01-11T00:51:08;-2.80;99.90
3380;DHT22;1703;51.964;7.642;2024-01-11T00:53:36;-2.90;99.90
3380;DHT22;1703;51.964;7.642;2024-01-11T00:56:03;-3.00;99.90
3380;DHT22;1703;51.964;7.642;2024-01-11T00:58:30;-3.00;99.90
3380;DHT22;1703;51.964;7.642;2024-01-11T01:00:56;-3.00;99.90
3380;DHT22;1703;51.964;7.642;2024-01-11T01:03:23;-3.00;99.90
3380;DHT22;1703;51.964;7.642;2024-01-11T01:05:50;-3.10;99.90
3380;DHT22;1703;51.964;7.642;2024-01-11T01:08:17;-3.20;99.90
3380;DHT22;1703;51.964;7.642;2024-01-11T01:10:45;-3.20;99.90
3380;DHT22;1703;51.964;7.642;2024-01-11T01:13:12;-3.20;99.90
3380;DHT22;1703;51.964;7.642;2024-01-11T01:15:39;-3.30;99.90
3380;DHT22;1703;51.964;7.642;2024-01-11T01:18:05;-3.30;99.90
3380;DHT22;1703;51.964;7.642;2024-01-11T01:20:32;-3.30;99.90
3380;DHT22;1703;51.964;7.642;2024-01-11T01:22:59;-3.30;99.90
3380;DHT22;1703;51.964;7.642;2024-01-11T01:25:26;-3.20;99.90
3380;DHT22;1703;51.964;7.642;2024-01-11T01:27:55;-3.10;99.90
3380;DHT22;1703;51.964;7.642;2024-01-11T01:30:22;-3.10;99.90
3380;DHT22;1703;51.964;7.642;2024-01-11T01:32:49;-3.00;99.90
3380;DHT22;1703;51.964;7.642;2024-01-11T01:35:16;-3.00;99.90
3380;DHT22;1703;51.964;7.642;2024-01-11T01:37:43;-2.90;99.90
3380;DHT22;1703;51.964;7.642;2024-01-11T01:40:10;-2.90;99.90
3380;DHT22;1703;51.964;7.642;2024-01-11T01:42:41;-2.90;99.90
3380;DHT22;1703;51.964;7.642;2024-01-11T01:45:10;-3.00;99.90
3380;DHT22;1703;51.964;7.642;2024-01-11T01:47:40;-3.10;99.90
3380;DHT22;1703;51.964;7.642;2024-01-11T01:50:08;-3.20;99.90
3380;DHT22;1703;51.964;7.642;2024-01-11T01:52:36;-3.10;99.90
3380;DHT22;1703;51.964;7.642;2024-01-11T01:55:05;-3.10;99.90
3380;DHT22;1703;51.964;7.642;2024-01-11T01:57:34;-3.10;99.90
3380;DHT22;1703;51.964;7.642;2024-01-11T02:00:02;-3.10;99.90
3380;DHT22;1703;51.964;7.642;2024-01-11T02:02:40;-3.10;99.90
3380;DHT22;1703;51.964;7.642;2024-01-11T02:05:08;-3.10;99.90
3380;DHT22;1703;51.964;7.642;2024-01-11T02:07:36;-3.20;99.90
3380;DHT22;1703;51.964;7.642;2024-01-11T02:10:04;-3.30;99.90
3380;DHT22;1703;51.964;7.642;2024-01-11T02:12:30;-3.20;99.90
3380;DHT22;1703;51.964;7.642;2024-01-11T02:14:57;-3.10;99.90
3380;DHT22;1703;51.964;7.642;2024-01-11T02:17:24;-3.20;99.90
3380;DHT22;1703;51.964;7.642;2024-01-11T02:19:52;-3.20;99.90
3380;DHT22;1703;51.964;7.642;2024-01-11T02:22:22;-3.20;99.90
3380;DHT22;1703;51.964;7.642;2024-01-11T02:24:52;-3.30;99.90
3380;DHT22;1703;51.964;7.642;2024-01-11T02:27:19;-3.40;99.90
3380;DHT22;1703;51.964;7.642;2024-01-11T02:29:45;-3.30;99.90
3380;DHT22;1703;51.964;7.642;2024-01-11T02:32:12;-3.40;99.90
3380;DHT22;1703;51.964;7.642;2024-01-11T02:34:39;-3.40;99.90
3380;DHT22;1703;51.964;7.642;2024-01-11T02:37:06;-3.40;99.90
3380;DHT22;1703;51.964;7.642;2024-01-11T02:39:33;-3.30;99.90
3380;DHT22;1703;51.964;7.642;2024-01-11T02:42:02;-3.30;99.90
3380;DHT22;1703;51.964;7.642;2024-01-11T02:44:29;-3.20;99.90
3380;DHT22;1703;51.964;7.642;2024-01-11T02:46:55;-3.10;99.90
3380;DHT22;1703;51.964;7.642;2024-01-11T02:49:22;-3.10;99.90
3380;DHT22;1703;51.964;7.642;2024-01-11T02:51:49;-3.20;99.90
3380;DHT22;1703;51.964;7.642;2024-01-11T02:54:16;-3.30;99.90
3380;DHT22;1703;51.964;7.642;2024-01-11T02:56:43;-3.50;99.90
3380;DHT22;1703;51.964;7.642;2024-01-11T02:59:11;-3.50;99.90
3380;DHT22;1703;51.964;7.642;2024-01-11T03:01:38;-3.60;99.90
3380;DHT22;1703;51.964;7.642;2024-01-11T03:04:05;-3.50;99.90
3380;DHT22;1703;51.964;7.642;2024-01-11T03:06:32;-3.50;99.90
3380;DHT22;1703;51.964;7.642;2024-01-11T03:08:59;-3.50;99.90
3380;DHT22;1703;51.964;7.642;2024-01-11T03:11:25;-3.60;99.90
3380;DHT22;1703;51.964;7.642;2024-01-11T03:13:52;-3.60;99.90
3380;DHT22;1703;51.964;7.642;2024-01-11T03:16:20;-3.70;99.90
3380;DHT22;1703;51.964;7.642;2024-01-11T03:18:47;-3.70;99.90
3380;DHT22;1703;51.964;7.642;2024-01-11T03:21:14;-3.70;99.90
3380;DHT22;1703;51.964;7.642;2024-01-11T03:23:41;-3.70;99.90
3380;DHT22;1703;51.964;7.642;2024-01-11T03:26:13;-3.80;99.90
3380;DHT22;1703;51.964;7.642;2024-01-11T03:28:39;-3.70;99.90
3380;DHT22;1703;51.964;7.642;2024-01-11T03:31:07;-3.70;99.90
3380;DHT22;1703;51.964;7.642;2024-01-11T03:33:36;-3.60;99.90
3380;DHT22;1703;51.964;7.642;2024-01-11T03:36:07;-3.50;99.90
3380;DHT22;1703;51.964;7.642;2024-01-11T03:38:34;-3.40;99.90
3380;DHT22;1703;51.964;7.642;2024-01-11T03:41:01;-3.40;99.90
3380;DHT22;1703;51.964;7.642;2024-01-11T03:43:28;-3.40;99.90
3380;DHT22;1703;51.964;7.642;2024-01-11T03:45:55;-3.50;99.90
3380;DHT22;1703;51.964;7.642;2024-01-11T03:48:21;-3.50;99.90
3380;DHT22;1703;51.964;7.642;2024-01-11T03:50:50;-3.60;99.90
3380;DHT22;1703;51.964;7.642;2024-01-11T03:53:17;-3.60;99.90
3380;DHT22;1703;51.964;7.642;2024-01-11T03:55:43;-3.70;99.90
3380;DHT22;1703;51.964;7.642;2024-01-11T03:58:10;-3.60;99.90
3380;DHT22;1703;51.964;7.642;2024-01-11T04:00:37;-3.60;99.90
3380;DHT22;1703;51.964;7.642;2024-01-11T04:03:06;-3.50;99.90
3380;DHT22;1703;51.964;7.642;2024-01-11T04:05:33;-3.60;99.90
3380;DHT22;1703;51.964;7.642;2024-01-11T04:08:03;-3.50;99.90
3380;DHT22;1703;51.964;7.642;2024-01-11T04:10:30;-3.60;99.90
3380;DHT22;1703;51.964;7.642;2024-01-11T04:12:57;-3.70;99.90
3380;DHT22;1703;51.964;7.642;2024-01-11T04:15:24;-3.70;99.90
3380;DHT22;1703;51.964;7.642;2024-01-11T04:17:50;-3.70;99.90
3380;DHT22;1703;51.964;7.642;2024-01-11T04:20:18;-3.60;99.90
3380;DHT22;1703;51.964;7.642;2024-01-11T04:22:44;-3.60;99.90
3380;DHT22;1703;51.964;7.642;2024-01-11T04:25:12;-3.60;99.90
3380;DHT22;1703;51.964;7.642;2024-01-11T04:27:39;-3.70;99.90
3380;DHT22;1703;51.964;7.642;2024-01-11T04:30:07;-3.70;99.90
3380;DHT22;1703;51.964;7.642;2024-01-11T04:32:34;-3.60;99.90
3380;DHT22;1703;51.964;7.642;2024-01-11T04:35:01;-3.60;99.90
3380;DHT22;1703;51.964;7.642;2024-01-11T04:37:27;-3.70;99.90
3380;DHT22;1703;51.964;7.642;2024-01-11T04:39:54;-3.70;99.90
3380;DHT22;1703;51.964;7.642;2024-01-11T04:42:26;-3.80;99.90
3380;DHT22;1703;51.964;7.642;2024-01-11T04:44:53;-3.90;99.90
3380;DHT22;1703;51.964;7.642;2024-01-11T04:47:20;-3.90;99.90
3380;DHT22;1703;51.964;7.642;2024-01-11T04:49:47;-3.80;99.90
3380;DHT22;1703;51.964;7.642;2024-01-11T04:52:14;-3.80;99.90
3380;DHT22;1703;51.964;7.642;2024-01-11T04:54:41;-3.80;99.90
3380;DHT22;1703;51.964;7.642;2024-01-11T04:57:07;-3.80;99.90
3380;DHT22;1703;51.964;7.642;2024-01-11T04:59:35;-3.70;99.90
3380;DHT22;1703;51.964;7.642;2024-01-11T05:02:02;-3.70;99.90
3380;DHT22;1703;51.964;7.642;2024-01-11T05:04:29;-3.80;99.90
3380;DHT22;1703;51.964;7.642;2024-01-11T05:06:56;-3.90;99.90
3380;DHT22;1703;51.964;7.642;2024-01-11T05:09:23;-3.80;99.90
3380;DHT22;1703;51.964;7.642;2024-01-11T05:11:50;-3.80;99.90
3380;DHT22;1703;51.964;7.642;2024-01-11T05:14:16;-3.80;99.90
3380;DHT22;1703;51.964;7.642;2024-01-11T05:16:44;-3.80;99.90
3380;DHT22;1703;51.964;7.642;2024-01-11T05:19:11;-3.80;99.90
3380;DHT22;1703;51.964;7.642;2024-01-11T05:21:38;-3.80;99.90
3380;DHT22;1703;51.964;7.642;2024-01-11T05:24:05;-3.80;99.90
3380;DHT22;1703;51.964;7.642;2024-01-11T05:26:32;-3.90;99.90
3380;DHT22;1703;51.964;7.642;2024-01-11T05:28:59;-3.90;99.90
3380;DHT22;1703;51.964;7.642;2024-01-11T05:31:25;-3.90;99.90
3380;DHT22;1703;51.964;7.642;2024-01-11T05:33:53;-4.00;99.90
3380;DHT22;1703;51.964;7.642;2024-01-11T05:36:20;-4.00;99.90
3380;DHT22;1703;51.964;7.642;2024-01-11T05:38:48;-4.10;99.90
3380;DHT22;1703;51.964;7.642;2024-01-11T05:41:15;-4.10;99.90
3380;DHT22;1703;51.964;7.642;2024-01-11T05:43:41;-4.00;99.90
3380;DHT22;1703;51.964;7.642;2024-01-11T05:46:09;-3.90;99.90
3380;DHT22;1703;51.964;7.642;2024-01-11T05:48:36;-3.80;99.90
3380;DHT22;1703;51.964;7.642;2024-01-11T05:51:05;-3.80;99.90
3380;DHT22;1703;51.964;7.642;2024-01-11T05:53:31;-3.70;99.90
3380;DHT22;1703;51.964;7.642;2024-01-11T05:56:00;-3.60;99.90
3380;DHT22;1703;51.964;7.642;2024-01-11T05:58:28;-3.60;99.90
3380;DHT22;1703;51.964;7.642;2024-01-11T06:00:55;-3.60;99.90
3380;DHT22;1703;51.964;7.642;2024-01-11T06:03:22;-3.60;99.90
3380;DHT22;1703;51.964;7.642;2024-01-11T06:05:49;-3.70;99.90
3380;DHT22;1703;51.964;7.642;2024-01-11T06:08:17;-3.70;99.90
3380;DHT22;1703;51.964;7.642;2024-01-11T06:10:44;-3.70;99.90
3380;DHT22;1703;51.964;7.642;2024-01-11T06:13:11;-3.70;99.90
3380;DHT22;1703;51.964;7.642;2024-01-11T06:15:37;-3.70;99.90
3380;DHT22;1703;51.964;7.642;2024-01-11T06:18:04;-3.70;99.90
3380;DHT22;1703;51.964;7.642;2024-01-11T06:20:31;-3.70;99.90
3380;DHT22;1703;51.964;7.642;2024-01-11T06:22:58;-3.70;99.90
3380;DHT22;1703;51.964;7.642;2024-01-11T06:25:26;-3.60;99.90
3380;DHT22;1703;51.964;7.642;2024-01-11T06:27:53;-3.70;99.90
3380;DHT22;1703;51.964;7.642;2024-01-11T06:30:20;-3.60;99.90
3380;DHT22;1703;51.964;7.642;2024-01-11T06:32:47;-3.60;99.90
3380;DHT22;1703;51.964;7.642;2024-01-11T06:35:14;-3.60;99.90
3380;DHT22;1703;51.964;7.642;2024-01-11T06:37:41;-3.70;99.90
3380;DHT22;1703;51.964;7.642;2024-01-11T06:40:08;-3.70;99.90
3380;DHT22;1703;51.964;7.642;2024-01-11T06:42:36;-3.80;99.90
3380;DHT22;1703;51.964;7.642;2024-01-11T06:45:03;-3.70;99.90
3380;DHT22;1703;51.964;7.642;2024-01-11T06:47:30;-3.90;99.90
3380;DHT22;1703;51.964;7.642;2024-01-11T06:49:57;-3.90;99.90
3380;DHT22;1703;51.964;7.642;2024-01-11T06:52:25;-3.90;99.90
3380;DHT22;1703;51.964;7.642;2024-01-11T06:54:52;-3.90;99.90
3380;DHT22;1703;51.964;7.642;2024-01-11T06:57:18;-3.90;99.90
3380;DHT22;1703;51.964;7.642;2024-01-11T06:59:47;-3.80;99.90
3380;DHT22;1703;51.964;7.642;2024-01-11T07:02:14;-4.00;99.90
3380;DHT22;1703;51.964;7.642;2024-01-11T07:04:43;-4.00;99.90
3380;DHT22;1703;51.964;7.642;2024-01-11T07:07:11;-4.10;99.90
3380;DHT22;1703;51.964;7.642;2024-01-11T07:09:38;-4.10;99.90
3380;DHT22;1703;51.964;7.642;2024-01-11T07:12:05;-4.20;99.90
3380;DHT22;1703;51.964;7.642;2024-01-11T07:14:32;-4.20;99.90
3380;DHT22;1703;51.964;7.642;2024-01-11T07:17:00;-4.20;99.90
3380;DHT22;1703;51.964;7.642;2024-01-11T07:19:28;-4.20;99.90
3380;DHT22;1703;51.964;7.642;2024-01-11T07:21:54;-4.10;99.90
3380;DHT22;1703;51.964;7.642;2024-01-11T07:24:21;-4.10;99.90
3380;DHT22;1703;51.964;7.642;2024-01-11T07:26:48;-4.20;99.90
3380;DHT22;1703;51.964;7.642;2024-01-11T07:29:15;-4.20;99.90
3380;DHT22;1703;51.964;7.642;2024-01-11T07:31:42;-4.20;99.90
3380;DHT22;1703;51.964;7.642;2024-01-11T07:34:10;-4.20;99.90
3380;DHT22;1703;51.964;7.642;2024-01-11T07:36:37;-4.00;99.90
3380;DHT22;1703;51.964;7.642;2024-01-11T07:39:03;-3.90;99.90
3380;DHT22;1703;51.964;7.642;2024-01-11T07:41:31;-3.90;99.90
3380;DHT22;1703;51.964;7.642;2024-01-11T07:43:58;-3.90;99.90
3380;DHT22;1703;51.964;7.642;2024-01-11T07:46:25;-3.90;99.90
3380;DHT22;1703;51.964;7.642;2024-01-11T07:48:52;-3.80;99.90
3380;DHT22;1703;51.964;7.642;2024-01-11T07:51:20;-3.70;99.90
3380;DHT22;1703;51.964;7.642;2024-01-11T07:53:47;-3.60;99.90
3380;DHT22;1703;51.964;7.642;2024-01-11T07:56:14;-3.60;99.90
3380;DHT22;1703;51.964;7.642;2024-01-11T07:58:40;-3.50;99.90
3380;DHT22;1703;51.964;7.642;2024-01-11T08:01:09;-3.50;99.90
3380;DHT22;1703;51.964;7.642;2024-01-11T08:03:36;-3.40;99.90
3380;DHT22;1703;51.964;7.642;2024-01-11T08:06:03;-3.50;99.90
3380;DHT22;1703;51.964;7.642;2024-01-11T08:08:34;-3.50;99.90
3380;DHT22;1703;51.964;7.642;2024-01-11T08:11:02;-3.50;99.90
3380;DHT22;1703;51.964;7.642;2024-01-11T08:13:28;-3.40;99.90
3380;DHT22;1703;51.964;7.642;2024-01-11T08:15:57;-3.40;99.90
3380;DHT22;1703;51.964;7.642;2024-01-11T08:18:24;-3.50;99.90
3380;DHT22;1703;51.964;7.642;2024-01-11T08:20:52;-3.50;99.90
3380;DHT22;1703;51.964;7.642;2024-01-11T08:23:19;-3.60;99.90
3380;DHT22;1703;51.964;7.642;2024-01-11T08:25:47;-3.60;99.90
3380;DHT22;1703;51.964;7.642;2024-01-11T08:28:14;-3.60;99.90
3380;DHT22;1703;51.964;7.642;2024-01-11T08:30:41;-3.50;99.90
3380;DHT22;1703;51.964;7.642;2024-01-11T08:33:08;-3.40;99.90
3380;DHT22;1703;51.964;7.642;2024-01-11T08:35:35;-3.30;99.90
3380;DHT22;1703;51.964;7.642;2024-01-11T08:38:02;-3.40;99.90
3380;DHT22;1703;51.964;7.642;2024-01-11T08:40:29;-3.40;99.90
3380;DHT22;1703;51.964;7.642;2024-01-11T08:42:57;-3.50;99.90
3380;DHT22;1703;51.964;7.642;2024-01-11T08:45:25;-3.40;99.90
3380;DHT22;1703;51.964;7.642;2024-01-11T08:47:51;-3.50;99.90
3380;DHT22;1703;51.964;7.642;2024-01-11T08:50:18;-3.40;99.90
3380;DHT22;1703;51.964;7.642;2024-01-11T08:52:47;-3.40;99.90
3380;DHT22;1703;51.964;7.642;2024-01-11T08:55:14;-3.30;99.90
3380;DHT22;1703;51.964;7.642;2024-01-11T08:57:42;-3.30;99.90
3380;DHT22;1703;51.964;7.642;2024-01-11T09:00:12;-3.20;99.90
3380;DHT22;1703;51.964;7.642;2024-01-11T09:02:42;-3.20;99.90
3380;DHT22;1703;51.964;7.642;2024-01-11T09:05:09;-3.10;99.90
3380;DHT22;1703;51.964;7.642;2024-01-11T09:07:36;-3.00;99.90
3380;DHT22;1703;51.964;7.642;2024-01-11T09:10:04;-3.00;99.90
3380;DHT22;1703;51.964;7.642;2024-01-11T09:12:31;-2.90;99.90
3380;DHT22;1703;51.964;7.642;2024-01-11T09:14:59;-3.00;99.90
3380;DHT22;1703;51.964;7.642;2024-01-11T09:17:27;-2.90;99.90
3380;DHT22;1703;51.964;7.642;2024-01-11T09:19:54;-2.90;99.90
3380;DHT22;1703;51.964;7.642;2024-01-11T09:22:21;-2.80;99.90
3380;DHT22;1703;51.964;7.642;2024-01-11T09:24:48;-2.80;99.90
3380;DHT22;1703;51.964;7.642;2024-01-11T09:27:15;-2.70;99.90
3380;DHT22;1703;51.964;7.642;2024-01-11T09:29:45;-2.60;99.90
3380;DHT22;1703;51.964;7.642;2024-01-11T09:32:12;-2.60;99.90
3380;DHT22;1703;51.964;7.642;2024-01-11T09:34:40;-2.50;99.90
3380;DHT22;1703;51.964;7.642;2024-01-11T09:37:09;-2.50;99.90
3380;DHT22;1703;51.964;7.642;2024-01-11T09:39:36;-2.40;99.90
3380;DHT22;1703;51.964;7.642;2024-01-11T09:42:06;-2.40;99.90
3380;DHT22;1703;51.964;7.642;2024-01-11T09:44:35;-2.30;99.90
3380;DHT22;1703;51.964;7.642;2024-01-11T09:47:04;-2.20;99.90
3380;DHT22;1703;51.964;7.642;2024-01-11T09:49:33;-2.10;99.90
3380;DHT22;1703;51.964;7.642;2024-01-11T09:52:02;-2.10;99.90
3380;DHT22;1703;51.964;7.642;2024-01-11T09:54:29;-2.00;99.90
3380;DHT22;1703;51.964;7.642;2024-01-11T09:56:58;-2.00;99.90
3380;DHT22;1703;51.964;7.642;2024-01-11T09:59:26;-1.90;99.90
3380;DHT22;1703;51.964;7.642;2024-01-11T10:01:54;-1.80;99.90
3380;DHT22;1703;51.964;7.642;2024-01-11T10:04:20;-1.80;99.90
3380;DHT22;1703;51.964;7.642;2024-01-11T10:06:49;-1.80;99.90
3380;DHT22;1703;51.964;7.642;2024-01-11T10:09:18;-1.80;99.90
3380;DHT22;1703;51.964;7.642;2024-01-11T10:11:45;-1.70;99.90
3380;DHT22;1703;51.964;7.642;2024-01-11T10:14:12;-1.50;99.90
3380;DHT22;1703;51.964;7.642;2024-01-11T10:16:41;-1.50;99.90
3380;DHT22;1703;51.964;7.642;2024-01-11T10:19:08;-1.40;99.90
3380;DHT22;1703;51.964;7.642;2024-01-11T10:21:38;-1.40;99.90
3380;DHT22;1703;51.964;7.642;2024-01-11T10:24:05;-1.20;99.90
3380;DHT22;1703;51.964;7.642;2024-01-11T10:26:34;-1.10;99.90
3380;DHT22;1703;51.964;7.642;2024-01-11T10:29:02;-1.00;99.90
3380;DHT22;1703;51.964;7.642;2024-01-11T10:31:31;-0.90;99.90
3380;DHT22;1703;51.964;7.642;2024-01-11T10:34:00;-0.90;99.90
3380;DHT22;1703;51.964;7.642;2024-01-11T10:36:30;-0.80;99.90
3380;DHT22;1703;51.964;7.642;2024-01-11T10:38:57;-0.70;99.90
3380;DHT22;1703;51.964;7.642;2024-01-11T10:41:29;-0.70;99.90
3380;DHT22;1703;51.964;7.642;2024-01-11T10:43:58;-0.60;99.90
3380;DHT22;1703;51.964;7.642;2024-01-11T10:46:26;-0.50;99.90
3380;DHT22;1703;51.964;7.642;2024-01-11T10:48:56;-0.40;99.90
3380;DHT22;1703;51.964;7.642;2024-01-11T10:51:27;-0.30;99.90
3380;DHT22;1703;51.964;7.642;2024-01-11T10:53:55;-0.20;99.90
3380;DHT22;1703;51.964;7.642;2024-01-11T10:56:23;-0.20;99.90
3380;DHT22;1703;51.964;7.642;2024-01-11T10:58:50;-0.10;99.90
3380;DHT22;1703;51.964;7.642;2024-01-11T11:01:20;0.00;99.90
3380;DHT22;1703;51.964;7.642;2024-01-11T11:03:48;0.00;99.90
3380;DHT22;1703;51.964;7.642;2024-01-11T11:06:18;0.10;99.90
3380;DHT22;1703;51.964;7.642;2024-01-11T11:08:47;0.10;99.90
3380;DHT22;1703;51.964;7.642;2024-01-11T11:11:17;0.10;99.90
3380;DHT22;1703;51.964;7.642;2024-01-11T11:13:46;0.30;99.90
3380;DHT22;1703;51.964;7.642;2024-01-11T11:16:14;0.40;99.90
3380;DHT22;1703;51.964;7.642;2024-01-11T11:18:43;0.50;99.90
3380;DHT22;1703;51.964;7.642;2024-01-11T11:21:10;0.50;99.90
3380;DHT22;1703;51.964;7.642;2024-01-11T11:23:37;0.40;99.90
3380;DHT22;1703;51.964;7.642;2024-01-11T11:26:06;0.50;99.90
3380;DHT22;1703;51.964;7.642;2024-01-11T11:28:33;0.70;99.90
3380;DHT22;1703;51.964;7.642;2024-01-11T11:31:02;0.70;99.90
3380;DHT22;1703;51.964;7.642;2024-01-11T11:33:29;0.70;99.90
3380;DHT22;1703;51.964;7.642;2024-01-11T11:35:59;0.60;99.90
3380;DHT22;1703;51.964;7.642;2024-01-11T11:38:26;0.70;99.90
3380;DHT22;1703;51.964;7.642;2024-01-11T11:40:55;0.70;99.90
3380;DHT22;1703;51.964;7.642;2024-01-11T11:43:23;0.80;99.90
3380;DHT22;1703;51.964;7.642;2024-01-11T11:45:51;0.90;99.90
3380;DHT22;1703;51.964;7.642;2024-01-11T11:48:50;0.90;99.90
3380;DHT22;1703;51.964;7.642;2024-01-11T11:51:19;0.90;99.90
3380;DHT22;1703;51.964;7.642;2024-01-11T11:53:48;1.00;99.90
3380;DHT22;1703;51.964;7.642;2024-01-11T11:56:17;0.80;99.90
3380;DHT22;1703;51.964;7.642;2024-01-11T11:58:44;0.70;99.90
3380;DHT22;1703;51.964;7.642;2024-01-11T12:01:14;0.80;99.90
3380;DHT22;1703;51.964;7.642;2024-01-11T12:03:44;0.80;99.90
3380;DHT22;1703;51.964;7.642;2024-01-11T12:06:15;0.90;99.90
3380;DHT22;1703;51.964;7.642;2024-01-11T12:08:44;0.80;99.90
3380;DHT22;1703;51.964;7.642;2024-01-11T12:11:16;1.00;99.90
3380;DHT22;1703;51.964;7.642;2024-01-11T12:13:46;1.00;99.90
3380;DHT22;1703;51.964;7.642;2024-01-11T12:16:14;0.90;99.90
3380;DHT22;1703;51.964;7.642;2024-01-11T12:18:41;0.90;99.90
3380;DHT22;1703;51.964;7.642;2024-01-11T12:21:13;1.00;99.90
3380;DHT22;1703;51.964;7.642;2024-01-11T12:23:41;1.10;99.90
3380;DHT22;1703;51.964;7.642;2024-01-11T12:26:09;1.20;99.90
3380;DHT22;1703;51.964;7.642;2024-01-11T12:28:39;1.30;99.90
3380;DHT22;1703;51.964;7.642;2024-01-11T12:31:07;1.20;99.90
3380;DHT22;1703;51.964;7.642;2024-01-11T12:33:34;1.30;99.90
3380;DHT22;1703;51.964;7.642;2024-01-11T12:36:05;1.20;99.90
3380;DHT22;1703;51.964;7.642;2024-01-11T12:38:33;1.20;99.90
3380;DHT22;1703;51.964;7.642;2024-01-11T12:41:00;1.30;99.90
3380;DHT22;1703;51.964;7.642;2024-01-11T12:43:30;1.40;99.90
3380;DHT22;1703;51.964;7.642;2024-01-11T12:45:57;1.50;99.90
3380;DHT22;1703;51.964;7.642;2024-01-11T12:48:24;1.50;99.90
3380;DHT22;1703;51.964;7.642;2024-01-11T12:50:52;1.40;99.90
3380;DHT22;1703;51.964;7.642;2024-01-11T12:53:19;1.40;99.90
3380;DHT22;1703;51.964;7.642;2024-01-11T12:55:46;1.30;99.90
3380;DHT22;1703;51.964;7.642;2024-01-11T12:58:19;1.40;99.90
3380;DHT22;1703;51.964;7.642;2024-01-11T13:00:48;1.50;99.90
3380;DHT22;1703;51.964;7.642;2024-01-11T13:03:15;1.40;99.90
3380;DHT22;1703;51.964;7.642;2024-01-11T13:05:41;1.40;99.90
3380;DHT22;1703;51.964;7.642;2024-01-11T13:08:08;1.40;99.90
3380;DHT22;1703;51.964;7.642;2024-01-11T13:10:35;1.40;99.90
3380;DHT22;1703;51.964;7.642;2024-01-11T13:13:03;1.40;99.90
3380;DHT22;1703;51.964;7.642;2024-01-11T13:15:30;1.50;99.90
3380;DHT22;1703;51.964;7.642;2024-01-11T13:18:00;1.50;99.90
3380;DHT22;1703;51.964;7.642;2024-01-11T13:20:27;1.60;99.90
3380;DHT22;1703;51.964;7.642;2024-01-11T13:23:12;1.50;99.90
3380;DHT22;1703;51.964;7.642;2024-01-11T13:25:40;1.50;99.90
3380;DHT22;1703;51.964;7.642;2024-01-11T13:28:07;1.40;99.90
3380;DHT22;1703;51.964;7.642;2024-01-11T13:30:34;1.40;99.90
3380;DHT22;1703;51.964;7.642;2024-01-11T13:33:03;1.40;99.90
3380;DHT22;1703;51.964;7.642;2024-01-11T13:35:30;1.50;99.90
3380;DHT22;1703;51.964;7.642;2024-01-11T13:37:57;1.50;99.90
3380;DHT22;1703;51.964;7.642;2024-01-11T13:40:23;1.40;99.90
3380;DHT22;1703;51.964;7.642;2024-01-11T13:42:50;1.40;99.90
3380;DHT22;1703;51.964;7.642;2024-01-11T13:45:17;1.40;99.90
3380;DHT22;1703;51.964;7.642;2024-01-11T13:47:44;1.50;99.90
3380;DHT22;1703;51.964;7.642;2024-01-11T13:50:12;1.60;99.90
3380;DHT22;1703;51.964;7.642;2024-01-11T13:52:40;1.60;99.90
3380;DHT22;1703;51.964;7.642;2024-01-11T13:55:07;1.60;99.90
3380;DHT22;1703;51.964;7.642;2024-01-11T13:57:35;1.60;99.90
3380;DHT22;1703;51.964;7.642;2024-01-11T14:00:03;1.70;99.90
3380;DHT22;1703;51.964;7.642;2024-01-11T14:02:30;1.70;99.90
3380;DHT22;1703;51.964;7.642;2024-01-11T14:04:57;1.70;99.90
3380;DHT22;1703;51.964;7.642;2024-01-11T14:07:25;1.80;99.90
3380;DHT22;1703;51.964;7.642;2024-01-11T14:09:52;1.80;99.90
3380;DHT22;1703;51.964;7.642;2024-01-11T14:12:19;1.80;99.90
3380;DHT22;1703;51.964;7.642;2024-01-11T14:14:46;1.70;99.90
3380;DHT22;1703;51.964;7.642;2024-01-11T14:17:13;1.60;99.90
3380;DHT22;1703;51.964;7.642;2024-01-11T14:19:40;1.60;99.90
3380;DHT22;1703;51.964;7.642;2024-01-11T14:22:07;1.50;99.90
3380;DHT22;1703;51.964;7.642;2024-01-11T14:24:35;1.50;99.90
3380;DHT22;1703;51.964;7.642;2024-01-11T14:27:02;1.50;99.90
3380;DHT22;1703;51.964;7.642;2024-01-11T14:29:29;1.40;99.90
3380;DHT22;1703;51.964;7.642;2024-01-11T14:31:55;1.40;99.90
3380;DHT22;1703;51.964;7.642;2024-01-11T14:34:22;1.40;99.90
3380;DHT22;1703;51.964;7.642;2024-01-11T14:36:49;1.40;99.90
3380;DHT22;1703;51.964;7.642;2024-01-11T14:39:16;1.40;99.90
3380;DHT22;1703;51.964;7.642;2024-01-11T14:41:44;1.40;99.90
3380;DHT22;1703;51.964;7.642;2024-01-11T14:44:11;1.50;99.90
3380;DHT22;1703;51.964;7.642;2024-01-11T14:46:38;1.40;99.90
3380;DHT22;1703;51.964;7.642;2024-01-11T14:49:07;1.40;99.90
3380;DHT22;1703;51.964;7.642;2024-01-11T14:51:34;1.40;99.90
3380;DHT22;1703;51.964;7.642;2024-01-11T14:54:03;1.40;99.90
3380;DHT22;1703;51.964;7.642;2024-01-11T14:56:30;1.40;99.90
3380;DHT22;1703;51.964;7.642;2024-01-11T14:58:58;1.50;99.90
3380;DHT22;1703;51.964;7.642;2024-01-11T15:01:25;1.60;99.90
3380;DHT22;1703;51.964;7.642;2024-01-11T15:03:51;1.60;99.90
3380;DHT22;1703;51.964;7.642;2024-01-11T15:06:19;1.60;99.90
3380;DHT22;1703;51.964;7.642;2024-01-11T15:08:46;1.60;99.90
3380;DHT22;1703;51.964;7.642;2024-01-11T15:11:13;1.50;99.90
3380;DHT22;1703;51.964;7.642;2024-01-11T15:13:40;1.60;99.90
3380;DHT22;1703;51.964;7.642;2024-01-11T15:16:08;1.60;99.90
3380;DHT22;1703;51.964;7.642;2024-01-11T15:18:35;1.70;99.90
3380;DHT22;1703;51.964;7.642;2024-01-11T15:21:02;1.70;99.90
3380;DHT22;1703;51.964;7.642;2024-01-11T15:23:29;1.60;99.90
3380;DHT22;1703;51.964;7.642;2024-01-11T15:25:56;1.60;99.90
3380;DHT22;1703;51.964;7.642;2024-01-11T15:28:23;1.70;99.90
3380;DHT22;1703;51.964;7.642;2024-01-11T15:30:50;1.70;99.90
3380;DHT22;1703;51.964;7.642;2024-01-11T15:33:18;1.80;99.90
3380;DHT22;1703;51.964;7.642;2024-01-11T15:35:45;1.70;99.90
3380;DHT22;1703;51.964;7.642;2024-01-11T15:38:13;1.70;99.90
3380;DHT22;1703;51.964;7.642;2024-01-11T15:40:41;1.70;99.90
3380;DHT22;1703;51.964;7.642;2024-01-11T15:43:08;1.80;99.90
3380;DHT22;1703;51.964;7.642;2024-01-11T15:45:35;1.80;99.90
3380;DHT22;1703;51.964;7.642;2024-01-11T15:48:02;1.80;99.90
3380;DHT22;1703;51.964;7.642;2024-01-11T15:50:30;1.80;99.90
3380;DHT22;1703;51.964;7.642;2024-01-11T15:52:57;1.80;99.90
3380;DHT22;1703;51.964;7.642;2024-01-11T15:55:24;1.80;99.90
3380;DHT22;1703;51.964;7.642;2024-01-11T15:57:51;1.80;99.90
3380;DHT22;1703;51.964;7.642;2024-01-11T16:00:20;1.80;99.90
3380;DHT22;1703;51.964;7.642;2024-01-11T16:02:47;1.90;99.90
3380;DHT22;1703;51.964;7.642;2024-01-11T16:05:13;1.90;99.90
3380;DHT22;1703;51.964;7.642;2024-01-11T16:07:42;1.80;99.90
3380;DHT22;1703;51.964;7.642;2024-01-11T16:10:09;1.90;99.90